Time;durP1;ratioP1;P1;durP2;ratioP2;P2;SDS_P1;SDS_P2;PMS_P1;PMS_P2;Temp;Humidity;BMP_temperature;BMP_pressure;BME280_temperature;BME280_humidity;BME280_pressure;Samples;Min_cycle;Max_cycle;Signal;HPM_P1;HPM_P2
2023/09/06 00:01:24;;;;;;;6.28;4.15;;;;;;;;;;4982270;28;20041;-66
2023/09/06 00:03:50;;;;;;;5.82;4.00;;;;;;;;;;4972658;28;20114;-66
2023/09/06 00:06:16;;;;;;;4.70;3.97;;;;;;;;;;4972749;28;20449;-66
2023/09/06 00:08:42;;;;;;;5.95;3.72;;;;;;;;;;4984703;28;20046;-66
2023/09/06 00:11:09;;;;;;;6.45;3.78;;;;;;;;;;4982397;28;20042;-67
2023/09/06 00:13:35;;;;;;;4.40;3.45;;;;;;;;;;4992647;28;20045;-67
2023/09/06 00:16:02;;;;;;;5.63;3.88;;;;;;;;;;4992168;28;20042;-67
2023/09/06 00:18:28;;;;;;;4.93;3.92;;;;;;;;;;4991119;28;20177;-67
2023/09/06 00:20:57;;;;;;;5.35;3.90;;;;;;;;;;4984378;28;20638;-67
2023/09/06 00:23:24;;;;;;;4.35;3.60;;;;;;;;;;4992560;28;20383;-67
2023/09/06 00:25:50;;;;;;;5.82;3.90;;;;;;;;;;4991745;28;20034;-67
2023/09/06 00:28:19;;;;;;;5.10;3.50;;;;;;;;;;4989875;28;20130;-68
2023/09/06 00:30:45;;;;;;;6.65;3.90;;;;;;;;;;4986172;28;20046;-67
2023/09/06 00:33:12;;;;;;;6.07;4.22;;;;;;;;;;4990494;28;20050;-67
2023/09/06 00:35:42;;;;;;;6.15;4.38;;;;;;;;;;4985669;28;20038;-68
2023/09/06 00:38:08;;;;;;;6.28;4.15;;;;;;;;;;4988267;28;20392;-68
2023/09/06 00:40:36;;;;;;;5.43;4.03;;;;;;;;;;4979673;28;20063;-68
2023/09/06 00:43:03;;;;;;;4.18;3.70;;;;;;;;;;4980433;28;20038;-68
2023/09/06 00:45:31;;;;;;;4.68;3.67;;;;;;;;;;4982391;28;20053;-68
2023/09/06 00:47:57;;;;;;;5.82;3.95;;;;;;;;;;4991911;28;20163;-68
2023/09/06 00:50:25;;;;;;;5.68;3.65;;;;;;;;;;4978681;28;20129;-68
2023/09/06 00:52:52;;;;;;;6.75;4.00;;;;;;;;;;4982234;28;20861;-68
2023/09/06 00:55:18;;;;;;;7.85;3.90;;;;;;;;;;4980083;28;20404;-68
2023/09/06 00:57:45;;;;;;;6.57;3.35;;;;;;;;;;4992023;28;20070;-68
2023/09/06 01:00:23;;;;;;;5.57;3.47;;;;;;;;;;4990380;28;20037;-68
2023/09/06 01:02:49;;;;;;;5.22;3.50;;;;;;;;;;4990424;28;20562;-68
2023/09/06 01:05:16;;;;;;;5.57;4.00;;;;;;;;;;4993035;28;20034;-68
2023/09/06 01:07:44;;;;;;;4.35;3.95;;;;;;;;;;4984329;28;20043;-68
2023/09/06 01:10:10;;;;;;;5.05;3.90;;;;;;;;;;4981929;28;20047;-68
2023/09/06 01:12:36;;;;;;;4.82;3.88;;;;;;;;;;4975893;28;20039;-68
2023/09/06 01:15:06;;;;;;;8.30;4.80;;;;;;;;;;4979962;28;20093;-68
2023/09/06 01:17:36;;;;;;;4.60;4.07;;;;;;;;;;4986744;28;20104;-68
2023/09/06 01:20:15;;;;;;;5.47;3.80;;;;;;;;;;4986033;28;20046;-68
2023/09/06 01:22:43;;;;;;;5.20;3.80;;;;;;;;;;4989320;28;20035;-68
2023/09/06 01:25:11;;;;;;;7.55;4.25;;;;;;;;;;4987048;28;20034;-68
2023/09/06 01:27:37;;;;;;;4.90;4.32;;;;;;;;;;4995042;28;20049;-68
2023/09/06 01:30:04;;;;;;;5.93;4.43;;;;;;;;;;4994970;28;20424;-68
2023/09/06 01:32:30;;;;;;;5.07;3.90;;;;;;;;;;4994789;28;20050;-68
2023/09/06 01:34:55;;;;;;;4.75;4.22;;;;;;;;;;4980072;28;20071;-68
2023/09/06 01:37:21;;;;;;;5.35;4.50;;;;;;;;;;4984229;28;20190;-68
2023/09/06 01:39:48;;;;;;;5.70;4.25;;;;;;;;;;4994914;28;20038;-68
2023/09/06 01:42:13;;;;;;;4.78;3.80;;;;;;;;;;4992337;28;20559;-68
2023/09/06 01:44:39;;;;;;;4.95;4.10;;;;;;;;;;4988298;28;20113;-68
2023/09/06 01:47:06;;;;;;;5.93;4.10;;;;;;;;;;4985856;28;20106;-68
2023/09/06 01:49:32;;;;;;;5.40;4.10;;;;;;;;;;4979376;28;20050;-68
2023/09/06 01:52:01;;;;;;;5.47;4.68;;;;;;;;;;4993422;28;20038;-68
2023/09/06 01:54:27;;;;;;;4.75;3.80;;;;;;;;;;4986328;28;20046;-68
2023/09/06 01:56:52;;;;;;;5.93;3.70;;;;;;;;;;4992720;28;20460;-68
2023/09/06 01:59:19;;;;;;;4.75;3.90;;;;;;;;;;4993855;28;20030;-68
2023/09/06 02:01:45;;;;;;;7.35;4.60;;;;;;;;;;4987140;28;20038;-68
2023/09/06 02:04:11;;;;;;;7.53;4.93;;;;;;;;;;4991845;28;20036;-68
2023/09/06 02:06:37;;;;;;;5.20;4.38;;;;;;;;;;4979511;28;20497;-68
2023/09/06 02:09:03;;;;;;;7.28;4.47;;;;;;;;;;4974836;28;20039;-68
2023/09/06 02:11:31;;;;;;;5.78;4.15;;;;;;;;;;4972803;28;20556;-68
2023/09/06 02:13:57;;;;;;;5.90;4.32;;;;;;;;;;4977178;28;20381;-68
2023/09/06 02:16:24;;;;;;;4.80;3.92;;;;;;;;;;4980243;28;20043;-68
2023/09/06 02:18:50;;;;;;;7.63;4.00;;;;;;;;;;4974823;28;20042;-68
2023/09/06 02:21:16;;;;;;;5.82;3.92;;;;;;;;;;4983360;28;20164;-68
2023/09/06 02:23:42;;;;;;;5.25;4.30;;;;;;;;;;4987120;28;20045;-68
2023/09/06 02:26:08;;;;;;;4.43;4.00;;;;;;;;;;4993635;28;20081;-68
2023/09/06 02:28:35;;;;;;;6.63;4.32;;;;;;;;;;4993849;28;20042;-68
2023/09/06 02:31:01;;;;;;;5.68;3.85;;;;;;;;;;4977929;28;20046;-68
2023/09/06 02:33:28;;;;;;;5.72;4.18;;;;;;;;;;4990541;28;20165;-68
2023/09/06 02:35:54;;;;;;;6.88;4.20;;;;;;;;;;4973998;28;20042;-68
2023/09/06 02:38:20;;;;;;;5.57;4.55;;;;;;;;;;4990590;28;20039;-68
2023/09/06 02:40:46;;;;;;;5.72;4.40;;;;;;;;;;4979151;28;20049;-68
2023/09/06 02:43:13;;;;;;;5.32;3.88;;;;;;;;;;4984802;28;20116;-68
2023/09/06 02:45:39;;;;;;;5.88;4.30;;;;;;;;;;4986638;28;20034;-68
2023/09/06 02:48:15;;;;;;;5.45;4.30;;;;;;;;;;4993191;28;20042;-68
2023/09/06 02:50:43;;;;;;;5.38;4.07;;;;;;;;;;4984730;28;20116;-68
2023/09/06 02:53:19;;;;;;;6.53;4.50;;;;;;;;;;4981448;28;20092;-68
2023/09/06 02:55:47;;;;;;;6.82;4.38;;;;;;;;;;4976977;28;20035;-67
2023/09/06 02:58:15;;;;;;;5.38;4.20;;;;;;;;;;4980138;28;20126;-67
2023/09/06 03:00:43;;;;;;;4.25;3.75;;;;;;;;;;4973775;28;20078;-67
2023/09/06 03:03:09;;;;;;;9.90;4.88;;;;;;;;;;4988099;28;20500;-67
2023/09/06 03:05:41;;;;;;;4.80;4.07;;;;;;;;;;4984646;28;20077;-68
2023/09/06 03:08:07;;;;;;;6.80;4.28;;;;;;;;;;4976645;28;20074;-67
2023/09/06 03:10:34;;;;;;;6.15;4.50;;;;;;;;;;4974032;28;20042;-67
2023/09/06 03:13:01;;;;;;;5.45;4.50;;;;;;;;;;4973077;28;20049;-67
2023/09/06 03:15:30;;;;;;;7.82;4.13;;;;;;;;;;4987058;28;20481;-68
2023/09/06 03:18:01;;;;;;;4.38;3.97;;;;;;;;;;4988303;28;20035;-68
2023/09/06 03:20:34;;;;;;;;;;;;;;;;;;4993006;28;20096;-68
2023/09/06 03:23:16;;;;;;;5.65;4.20;;;;;;;;;;4986253;28;20012;-68
2023/09/06 03:25:43;;;;;;;5.20;3.70;;;;;;;;;;4984703;28;20054;-68
2023/09/06 03:28:09;;;;;;;4.88;3.97;;;;;;;;;;4991393;28;20042;-68
2023/09/06 03:30:35;;;;;;;4.63;4.22;;;;;;;;;;4984195;28;20046;-68
2023/09/06 03:33:02;;;;;;;5.03;4.18;;;;;;;;;;4979925;28;20031;-67
2023/09/06 03:35:28;;;;;;;6.95;4.78;;;;;;;;;;4979187;28;20042;-67
2023/09/06 03:37:54;;;;;;;5.20;4.20;;;;;;;;;;4977945;28;20122;-68
2023/09/06 03:40:35;;;;;;;5.35;3.85;;;;;;;;;;4981451;28;20070;-68
2023/09/06 03:43:05;;;;;;;3.80;3.10;;;;;;;;;;4984686;28;20051;-68
2023/09/06 03:45:32;;;;;;;4.70;3.30;;;;;;;;;;4992294;28;20038;-68
2023/09/06 03:47:58;;;;;;;5.63;4.30;;;;;;;;;;4992483;28;20034;-68
2023/09/06 03:50:24;;;;;;;5.28;3.83;;;;;;;;;;4990832;28;20038;-68
2023/09/06 03:52:50;;;;;;;5.57;3.60;;;;;;;;;;4984184;28;20057;-68
2023/09/06 03:55:17;;;;;;;7.10;4.90;;;;;;;;;;4989138;28;20117;-68
2023/09/06 03:57:43;;;;;;;6.15;5.53;;;;;;;;;;4984601;28;20069;-68
2023/09/06 04:00:26;;;;;;;6.45;4.30;;;;;;;;;;4988247;28;20530;-68
2023/09/06 04:02:56;;;;;;;5.03;4.18;;;;;;;;;;4988764;28;20050;-68
2023/09/06 04:05:22;;;;;;;5.90;4.07;;;;;;;;;;4985717;28;20443;-68
2023/09/06 04:07:49;;;;;;;5.68;4.07;;;;;;;;;;4972133;28;20105;-68
2023/09/06 04:10:21;;;;;;;6.05;4.50;;;;;;;;;;4972760;28;20042;-68
2023/09/06 04:12:48;;;;;;;5.60;4.50;;;;;;;;;;4972764;28;20031;-68
2023/09/06 04:15:14;;;;;;;6.53;4.35;;;;;;;;;;4980863;28;20114;-68
2023/09/06 04:17:40;;;;;;;6.20;4.63;;;;;;;;;;4979554;28;20153;-68
2023/09/06 04:20:19;;;;;;;5.90;4.65;;;;;;;;;;4979153;28;20070;-68
2023/09/06 04:22:46;;;;;;;5.82;4.10;;;;;;;;;;4990967;28;20042;-68
2023/09/06 04:25:13;;;;;;;7.20;4.65;;;;;;;;;;4982211;28;20058;-68
2023/09/06 04:27:41;;;;;;;6.57;4.43;;;;;;;;;;4979152;28;20043;-68
2023/09/06 04:30:08;;;;;;;7.13;5.40;;;;;;;;;;4972916;28;20035;-68
2023/09/06 04:32:34;;;;;;;9.57;4.82;;;;;;;;;;4972886;28;20118;-68
2023/09/06 04:35:00;;;;;;;6.85;4.68;;;;;;;;;;4986945;28;20093;-68
2023/09/06 04:37:26;;;;;;;8.20;4.82;;;;;;;;;;4987230;28;20507;-68
2023/09/06 04:39:53;;;;;;;6.50;5.07;;;;;;;;;;4995907;28;20073;-68
2023/09/06 04:42:19;;;;;;;5.53;4.93;;;;;;;;;;4995804;28;20496;-68
2023/09/06 04:44:45;;;;;;;8.32;4.68;;;;;;;;;;4994854;28;20088;-68
2023/09/06 04:47:15;;;;;;;7.82;5.07;;;;;;;;;;4985565;28;20046;-68
2023/09/06 04:49:42;;;;;;;5.55;4.50;;;;;;;;;;5022530;22;20151;-67
2023/09/06 04:52:08;;;;;;;7.57;4.60;;;;;;;;;;5031027;28;20034;-67
2023/09/06 04:54:34;;;;;;;8.23;5.30;;;;;;;;;;5029158;28;20034;-67
2023/09/06 04:57:00;;;;;;;5.50;4.68;;;;;;;;;;5007388;28;20369;-67
2023/09/06 04:59:26;;;;;;;5.60;4.82;;;;;;;;;;5015204;28;20176;-67
2023/09/06 05:01:52;;;;;;;5.32;4.40;;;;;;;;;;5014693;28;20044;-67
2023/09/06 05:04:19;;;;;;;6.18;5.13;;;;;;;;;;5012829;28;20037;-67
2023/09/06 05:06:45;;;;;;;5.72;4.78;;;;;;;;;;5003354;28;20034;-67
2023/09/06 05:09:15;;;;;;;6.53;4.65;;;;;;;;;;4994772;28;20034;-67
2023/09/06 05:11:41;;;;;;;7.40;5.88;;;;;;;;;;4995430;28;20045;-67
2023/09/06 05:14:07;;;;;;;8.50;4.53;;;;;;;;;;5006738;28;20069;-67
2023/09/06 05:16:33;;;;;;;9.05;5.28;;;;;;;;;;5005334;28;20131;-67
2023/09/06 05:18:59;;;;;;;6.57;4.70;;;;;;;;;;5014295;28;20034;-67
2023/09/06 05:21:25;;;;;;;6.53;4.80;;;;;;;;;;5014928;28;20455;-67
2023/09/06 05:23:51;;;;;;;6.43;5.18;;;;;;;;;;5009717;28;20040;-67
2023/09/06 05:26:17;;;;;;;6.40;5.05;;;;;;;;;;5011030;28;20026;-67
2023/09/06 05:28:43;;;;;;;6.07;4.25;;;;;;;;;;5006269;28;20096;-67
2023/09/06 05:31:09;;;;;;;5.10;4.60;;;;;;;;;;5014584;28;20037;-67
2023/09/06 05:33:35;;;;;;;6.03;4.50;;;;;;;;;;5014097;28;20069;-67
2023/09/06 05:36:03;;;;;;;5.05;4.38;;;;;;;;;;5003699;28;20062;-67
2023/09/06 05:38:29;;;;;;;5.38;4.18;;;;;;;;;;4994433;28;20045;-67
2023/09/06 05:40:55;;;;;;;7.38;5.63;;;;;;;;;;4995098;28;20034;-67
2023/09/06 05:43:21;;;;;;;6.15;4.82;;;;;;;;;;5007987;28;20049;-67
2023/09/06 05:45:47;;;;;;;7.10;5.82;;;;;;;;;;5002261;28;20408;-67
2023/09/06 05:48:12;;;;;;;8.68;5.45;;;;;;;;;;4994422;28;20210;-67
2023/09/06 05:50:39;;;;;;;6.95;5.70;;;;;;;;;;5012177;28;20038;-67
2023/09/06 05:53:04;;;;;;;7.22;5.70;;;;;;;;;;5005753;28;20041;-67
2023/09/06 05:55:30;;;;;;;8.45;5.75;;;;;;;;;;5000515;28;20553;-67
2023/09/06 05:57:56;;;;;;;7.93;5.60;;;;;;;;;;5011358;28;20128;-67
2023/09/06 06:00:24;;;;;;;7.97;5.40;;;;;;;;;;5005580;28;20125;-67
2023/09/06 06:02:50;;;;;;;7.25;6.15;;;;;;;;;;5014279;28;20117;-67
2023/09/06 06:05:18;;;;;;;7.47;5.70;;;;;;;;;;5013411;28;20038;-67
2023/09/06 06:07:45;;;;;;;7.00;5.90;;;;;;;;;;5012758;28;20085;-67
2023/09/06 06:10:11;;;;;;;6.65;5.38;;;;;;;;;;5013354;28;20048;-67
2023/09/06 06:12:38;;;;;;;9.07;6.07;;;;;;;;;;5013749;28;20026;-67
2023/09/06 06:15:05;;;;;;;9.00;5.80;;;;;;;;;;5013304;28;20034;-67
2023/09/06 06:17:31;;;;;;;8.20;6.05;;;;;;;;;;5013143;28;20044;-67
2023/09/06 06:19:57;;;;;;;7.45;6.10;;;;;;;;;;5012213;28;20391;-67
2023/09/06 06:22:23;;;;;;;8.50;6.30;;;;;;;;;;5013738;28;20041;-67
2023/09/06 06:24:50;;;;;;;9.90;6.78;;;;;;;;;;5013642;28;20038;-67
2023/09/06 06:27:16;;;;;;;8.93;6.35;;;;;;;;;;5012546;28;20495;-67
2023/09/06 06:29:42;;;;;;;10.77;7.25;;;;;;;;;;5013342;28;20049;-67
2023/09/06 06:32:08;;;;;;;8.05;6.22;;;;;;;;;;5013657;28;20583;-67
2023/09/06 06:34:38;;;;;;;11.95;7.28;;;;;;;;;;5012678;28;20069;-67
2023/09/06 06:37:04;;;;;;;11.23;6.75;;;;;;;;;;5013016;28;20096;-67
2023/09/06 06:39:30;;;;;;;9.13;7.00;;;;;;;;;;5010938;28;20483;-67
2023/09/06 06:41:56;;;;;;;8.32;6.80;;;;;;;;;;5013094;28;20040;-67
2023/09/06 06:44:22;;;;;;;10.00;7.03;;;;;;;;;;5004493;28;20381;-67
2023/09/06 06:46:48;;;;;;;10.23;7.35;;;;;;;;;;5009766;28;20038;-67
2023/09/06 06:49:15;;;;;;;8.18;7.00;;;;;;;;;;5011007;28;20473;-67
2023/09/06 06:51:41;;;;;;;8.38;6.55;;;;;;;;;;5005949;28;20092;-67
2023/09/06 06:54:07;;;;;;;9.13;6.43;;;;;;;;;;5011321;28;20042;-67
2023/09/06 06:56:34;;;;;;;8.65;7.30;;;;;;;;;;5004670;28;20069;-67
2023/09/06 06:59:00;;;;;;;11.95;7.28;;;;;;;;;;5011427;28;20057;-67
2023/09/06 07:01:27;;;;;;;9.70;7.32;;;;;;;;;;5012702;28;20488;-67
2023/09/06 07:03:54;;;;;;;8.63;6.82;;;;;;;;;;5004716;28;20038;-67
2023/09/06 07:06:20;;;;;;;7.78;6.45;;;;;;;;;;4994241;28;20046;-70
2023/09/06 07:08:46;;;;;;;7.85;6.47;;;;;;;;;;4991729;28;20053;-70
2023/09/06 07:11:12;;;;;;;7.63;6.10;;;;;;;;;;5007952;28;20037;-70
2023/09/06 07:13:38;;;;;;;7.70;5.72;;;;;;;;;;5011469;28;20061;-70
2023/09/06 07:16:04;;;;;;;6.70;5.88;;;;;;;;;;5012329;28;20434;-71
2023/09/06 07:18:31;;;;;;;6.93;5.57;;;;;;;;;;4992235;28;20124;-71
2023/09/06 07:20:57;;;;;;;8.10;5.47;;;;;;;;;;5004812;28;20048;-71
2023/09/06 07:23:23;;;;;;;6.47;5.78;;;;;;;;;;5010540;28;20580;-71
2023/09/06 07:25:49;;;;;;;8.13;5.30;;;;;;;;;;5011972;28;20038;-71
2023/09/06 07:28:15;;;;;;;6.80;4.97;;;;;;;;;;5010654;28;20034;-71
2023/09/06 07:30:43;;;;;;;5.57;4.45;;;;;;;;;;5005260;28;20403;-71
2023/09/06 07:33:09;;;;;;;7.65;4.68;;;;;;;;;;5012196;28;20113;-71
2023/09/06 07:35:35;;;;;;;6.45;4.10;;;;;;;;;;5011884;28;20081;-71
2023/09/06 07:38:01;;;;;;;8.00;4.30;;;;;;;;;;5010032;28;20463;-70
2023/09/06 07:40:27;;;;;;;4.95;4.25;;;;;;;;;;5003265;28;20093;-70
2023/09/06 07:42:53;;;;;;;5.88;4.10;;;;;;;;;;5005549;28;20030;-70
2023/09/06 07:45:19;;;;;;;6.20;4.43;;;;;;;;;;5007334;28;20037;-70
2023/09/06 07:47:45;;;;;;;7.07;4.55;;;;;;;;;;5005154;28;20564;-70
2023/09/06 07:50:11;;;;;;;5.65;4.25;;;;;;;;;;5003385;28;20125;-70
2023/09/06 07:52:37;;;;;;;5.80;4.10;;;;;;;;;;4995682;28;20047;-70
2023/09/06 07:55:04;;;;;;;7.22;3.72;;;;;;;;;;5007938;28;20089;-70
2023/09/06 07:57:30;;;;;;;6.93;4.25;;;;;;;;;;5010900;28;20411;-70
2023/09/06 07:59:56;;;;;;;6.65;4.20;;;;;;;;;;5001415;28;20049;-70
2023/09/06 08:02:22;;;;;;;5.22;3.80;;;;;;;;;;5001893;28;20034;-70
2023/09/06 08:04:50;;;;;;;5.13;3.70;;;;;;;;;;5007615;28;20125;-70
2023/09/06 08:07:16;;;;;;;6.30;3.97;;;;;;;;;;5007738;28;20101;-70
2023/09/06 08:09:43;;;;;;;4.78;3.35;;;;;;;;;;5004234;28;20034;-70
2023/09/06 08:12:09;;;;;;;5.10;3.40;;;;;;;;;;5016090;28;20165;-70
2023/09/06 08:14:35;;;;;;;4.38;3.55;;;;;;;;;;5005894;28;20049;-70
2023/09/06 08:17:01;;;;;;;4.50;3.72;;;;;;;;;;5015392;28;20046;-70
2023/09/06 08:19:27;;;;;;;4.05;3.15;;;;;;;;;;5015681;28;20168;-70
2023/09/06 08:21:54;;;;;;;4.40;3.28;;;;;;;;;;5014197;28;20074;-70
2023/09/06 08:24:20;;;;;;;7.47;3.95;;;;;;;;;;5010646;28;20623;-70
2023/09/06 08:26:49;;;;;;;8.45;3.40;;;;;;;;;;5010911;28;20061;-70
2023/09/06 08:29:15;;;;;;;4.40;3.03;;;;;;;;;;4995068;28;20732;-70
2023/09/06 08:31:41;;;;;;;3.85;3.10;;;;;;;;;;4999070;28;20034;-70
2023/09/06 08:34:07;;;;;;;3.20;2.90;;;;;;;;;;5011969;28;20475;-70
2023/09/06 08:36:33;;;;;;;3.30;2.95;;;;;;;;;;5014757;28;20038;-70
2023/09/06 08:39:00;;;;;;;8.68;3.30;;;;;;;;;;5015186;28;20120;-70
2023/09/06 08:41:26;;;;;;;4.93;3.38;;;;;;;;;;5012542;28;20072;-70
2023/09/06 08:43:53;;;;;;;7.35;3.70;;;;;;;;;;5002679;28;20453;-70
2023/09/06 08:46:21;;;;;;;3.40;3.03;;;;;;;;;;4994814;28;20500;-70
2023/09/06 08:48:47;;;;;;;13.77;3.83;;;;;;;;;;4995614;28;20121;-70
2023/09/06 08:51:14;;;;;;;3.75;2.63;;;;;;;;;;4994982;28;20042;-70
2023/09/06 08:53:43;;;;;;;10.80;3.63;;;;;;;;;;5011156;28;20528;-70
2023/09/06 08:56:10;;;;;;;30.45;5.57;;;;;;;;;;5010708;28;20046;-70
2023/09/06 08:58:36;;;;;;;6.07;3.00;;;;;;;;;;5015158;28;20578;-70
2023/09/06 09:01:06;;;;;;;34.72;6.05;;;;;;;;;;5013496;28;20089;-70
2023/09/06 09:03:32;;;;;;;6.80;3.45;;;;;;;;;;5006206;28;20088;-70
2023/09/06 09:06:07;;;;;;;6.05;2.78;;;;;;;;;;5014733;28;20034;-70
2023/09/06 09:08:34;;;;;;;3.47;2.50;;;;;;;;;;5005199;28;20042;-70
2023/09/06 09:11:13;;;;;;;3.05;2.42;;;;;;;;;;5000684;28;20049;-70
2023/09/06 09:13:40;;;;;;;5.30;2.55;;;;;;;;;;5006510;28;20496;-70
2023/09/06 09:16:07;;;;;;;3.25;2.70;;;;;;;;;;4998925;28;20046;-70
2023/09/06 09:18:34;;;;;;;3.45;2.50;;;;;;;;;;4998806;28;20395;-70
2023/09/06 09:21:03;;;;;;;3.47;2.60;;;;;;;;;;5005784;28;20504;-70
2023/09/06 09:23:29;;;;;;;6.65;2.70;;;;;;;;;;5005806;28;20056;-70
2023/09/06 09:25:55;;;;;;;3.22;2.50;;;;;;;;;;5014523;28;20041;-70
2023/09/06 09:28:21;;;;;;;3.45;2.30;;;;;;;;;;5014147;28;20503;-70
2023/09/06 09:30:47;;;;;;;3.22;2.30;;;;;;;;;;5013440;28;20371;-70
2023/09/06 09:33:13;;;;;;;4.85;2.70;;;;;;;;;;5005558;28;20127;-70
2023/09/06 09:35:40;;;;;;;5.78;2.72;;;;;;;;;;5013644;28;20046;-70
2023/09/06 09:38:10;;;;;;;3.90;2.75;;;;;;;;;;5014356;28;20041;-70
2023/09/06 09:40:37;;;;;;;4.22;2.55;;;;;;;;;;5011139;28;20038;-70
2023/09/06 09:43:06;;;;;;;5.30;2.85;;;;;;;;;;5010388;28;20045;-70
2023/09/06 09:45:43;;;;;;;4.78;2.45;;;;;;;;;;4994556;28;20481;-70
2023/09/06 09:48:10;;;;;;;5.18;2.75;;;;;;;;;;4976930;28;20050;-70
2023/09/06 09:50:36;;;;;;;3.67;2.25;;;;;;;;;;4994473;28;20484;-70
2023/09/06 09:53:07;;;;;;;4.43;2.45;;;;;;;;;;5005226;28;20065;-70
2023/09/06 09:55:35;;;;;;;4.25;2.70;;;;;;;;;;5013401;28;20116;-70
2023/09/06 09:58:05;;;;;;;3.25;2.40;;;;;;;;;;5007152;28;20514;-70
2023/09/06 10:00:32;;;;;;;4.35;2.38;;;;;;;;;;5013018;28;20108;-70
2023/09/06 10:02:58;;;;;;;2.20;1.98;;;;;;;;;;5005762;28;20061;-70
2023/09/06 10:05:28;;;;;;;3.83;2.58;;;;;;;;;;5002288;28;20100;-70
2023/09/06 10:07:57;;;;;;;6.05;2.50;;;;;;;;;;4994378;28;20522;-70
2023/09/06 10:10:24;;;;;;;5.63;2.60;;;;;;;;;;4993337;28;20050;-70
2023/09/06 10:12:51;;;;;;;3.88;2.47;;;;;;;;;;5007391;28;20046;-70
2023/09/06 10:15:23;;;;;;;4.13;2.42;;;;;;;;;;5010119;28;20046;-70
2023/09/06 10:17:50;;;;;;;3.53;2.58;;;;;;;;;;5006624;28;20077;-70
2023/09/06 10:20:16;;;;;;;4.43;2.58;;;;;;;;;;5013260;28;20026;-70
2023/09/06 10:22:43;;;;;;;4.72;2.33;;;;;;;;;;5004491;28;20455;-70
2023/09/06 10:25:10;;;;;;;3.78;2.30;;;;;;;;;;5005363;28;20406;-70
2023/09/06 10:27:44;;;;;;;3.97;2.15;;;;;;;;;;5012620;28;20483;-70
2023/09/06 10:30:17;;;;;;;3.50;2.53;;;;;;;;;;5013652;28;20116;-70
2023/09/06 10:32:43;;;;;;;4.55;2.40;;;;;;;;;;5012724;28;20129;-70
2023/09/06 10:35:21;;;;;;;4.65;2.20;;;;;;;;;;5002562;28;20042;-71
2023/09/06 10:38:00;;;;;;;2.58;2.38;;;;;;;;;;5006873;28;20041;-71
2023/09/06 10:40:47;;;;;;;3.90;2.10;;;;;;;;;;5013384;28;20077;-71
2023/09/06 10:43:13;;;;;;;3.33;2.03;;;;;;;;;;5000603;28;20080;-71
2023/09/06 10:45:40;;;;;;;4.20;2.00;;;;;;;;;;5010094;28;20116;-71
2023/09/06 10:51:03;;;;;;;3.40;2.10;;;;;;;;;;4990083;28;20422;-72
2023/09/06 10:53:30;;;;;;;5.18;2.55;;;;;;;;;;5007364;28;20053;-72
2023/09/06 10:55:58;;;;;;;3.95;2.45;;;;;;;;;;4993235;28;20038;-72
2023/09/06 10:58:24;;;;;;;2.53;2.22;;;;;;;;;;4992987;28;20043;-72
2023/09/06 11:01:09;;;;;;;3.65;2.10;;;;;;;;;;4992943;28;20034;-72
2023/09/06 11:03:35;;;;;;;2.60;2.30;;;;;;;;;;4991711;28;20042;-72
2023/09/06 11:06:04;;;;;;;3.50;2.08;;;;;;;;;;4991721;28;20034;-72
2023/09/06 11:08:31;;;;;;;2.78;2.33;;;;;;;;;;4992349;28;20058;-72
2023/09/06 11:11:07;;;;;;;2.78;2.25;;;;;;;;;;4993476;28;20034;-72
2023/09/06 11:13:34;;;;;;;3.72;1.95;;;;;;;;;;4991108;28;20050;-72
2023/09/06 11:16:03;;;;;;;4.18;2.20;;;;;;;;;;4992812;28;20077;-71
2023/09/06 11:18:32;;;;;;;4.38;2.40;;;;;;;;;;4992861;28;20042;-70
2023/09/06 11:20:59;;;;;;;2.83;1.88;;;;;;;;;;4992959;28;20125;-70
2023/09/06 11:23:26;;;;;;;2.88;1.80;;;;;;;;;;4992356;28;20038;-70
2023/09/06 11:25:59;;;;;;;3.17;2.17;;;;;;;;;;4992406;28;20127;-70
2023/09/06 11:28:29;;;;;;;4.50;2.45;;;;;;;;;;4992695;28;20049;-70
2023/09/06 11:30:57;;;;;;;5.22;2.38;;;;;;;;;;4993038;28;20049;-69
2023/09/06 11:33:29;;;;;;;2.28;2.08;;;;;;;;;;4991140;28;20038;-69
2023/09/06 11:35:58;;;;;;;3.20;2.40;;;;;;;;;;4992929;28;20439;-69
2023/09/06 11:38:28;;;;;;;5.45;2.38;;;;;;;;;;4992524;28;20049;-69
2023/09/06 11:40:58;;;;;;;4.03;2.70;;;;;;;;;;4993023;28;20092;-69
2023/09/06 11:43:26;;;;;;;5.38;2.10;;;;;;;;;;4991411;28;20552;-69
2023/09/06 11:45:54;;;;;;;3.45;2.28;;;;;;;;;;4991703;28;20038;-69
2023/09/06 11:48:30;;;;;;;2.80;2.15;;;;;;;;;;4992542;28;20050;-69
2023/09/06 11:51:08;;;;;;;4.05;2.00;;;;;;;;;;4992705;28;20050;-70
2023/09/06 11:53:36;;;;;;;3.72;2.20;;;;;;;;;;4991809;28;20047;-70
2023/09/06 11:56:05;;;;;;;2.83;2.00;;;;;;;;;;4992423;28;20104;-70
2023/09/06 11:58:32;;;;;;;2.83;2.15;;;;;;;;;;4992410;28;20053;-69
2023/09/06 12:01:01;;;;;;;5.40;2.30;;;;;;;;;;4992257;28;20045;-69
2023/09/06 12:03:33;;;;;;;3.65;2.35;;;;;;;;;;4991733;28;20037;-69
2023/09/06 12:06:00;;;;;;;3.95;2.13;;;;;;;;;;4991269;28;20048;-69
2023/09/06 12:08:29;;;;;;;3.67;2.30;;;;;;;;;;4990716;28;20125;-69
2023/09/06 12:11:06;;;;;;;2.80;2.00;;;;;;;;;;4992475;28;20077;-69
2023/09/06 12:13:34;;;;;;;2.50;2.13;;;;;;;;;;4991787;28;20118;-69
2023/09/06 12:16:01;;;;;;;3.20;1.90;;;;;;;;;;4991279;28;20073;-69
2023/09/06 12:18:28;;;;;;;3.28;2.38;;;;;;;;;;4992143;28;20057;-69
2023/09/06 12:20:54;;;;;;;3.17;1.90;;;;;;;;;;4992530;28;20113;-69
2023/09/06 12:23:23;;;;;;;2.60;1.80;;;;;;;;;;4991211;28;20054;-69
2023/09/06 12:25:49;;;;;;;3.75;2.20;;;;;;;;;;4992215;28;20042;-69
2023/09/06 12:28:15;;;;;;;3.20;2.20;;;;;;;;;;4992236;28;20048;-69
2023/09/06 12:30:41;;;;;;;3.58;1.98;;;;;;;;;;4992519;28;20038;-70
2023/09/06 12:33:07;;;;;;;2.65;2.15;;;;;;;;;;4989969;28;20142;-69
2023/09/06 12:35:37;;;;;;;2.83;2.15;;;;;;;;;;4992002;28;20059;-69
2023/09/06 12:38:03;;;;;;;2.45;2.00;;;;;;;;;;4992146;28;20085;-69
2023/09/06 12:40:30;;;;;;;3.85;1.95;;;;;;;;;;4990751;28;20047;-69
2023/09/06 12:42:57;;;;;;;2.85;1.90;;;;;;;;;;4991037;28;20034;-69
2023/09/06 12:45:26;;;;;;;2.85;1.90;;;;;;;;;;4991964;28;20117;-69
2023/09/06 12:47:52;;;;;;;3.83;2.20;;;;;;;;;;4992277;28;20046;-70
2023/09/06 12:50:19;;;;;;;2.78;2.10;;;;;;;;;;4989993;28;20050;-69
2023/09/06 12:52:45;;;;;;;4.03;1.70;;;;;;;;;;4989181;28;20047;-70
2023/09/06 12:55:11;;;;;;;3.72;1.80;;;;;;;;;;4990148;28;20038;-70
2023/09/06 12:57:37;;;;;;;2.35;1.60;;;;;;;;;;4993687;28;20045;-69
2023/09/06 13:00:05;;;;;;;2.45;1.50;;;;;;;;;;4995526;28;20067;-69
2023/09/06 13:02:33;;;;;;;2.65;1.75;;;;;;;;;;4994844;28;20046;-69
2023/09/06 13:04:59;;;;;;;2.30;1.63;;;;;;;;;;4994967;28;20045;-69
2023/09/06 13:07:25;;;;;;;2.45;1.70;;;;;;;;;;4994193;28;20046;-69
2023/09/06 13:09:51;;;;;;;4.18;1.67;;;;;;;;;;4994152;28;20044;-70
2023/09/06 13:12:17;;;;;;;3.58;1.58;;;;;;;;;;4995292;28;20488;-70
2023/09/06 13:14:43;;;;;;;2.45;1.63;;;;;;;;;;4976196;28;20057;-69
2023/09/06 13:17:09;;;;;;;1.92;1.50;;;;;;;;;;4995058;28;20571;-69
2023/09/06 13:19:35;;;;;;;2.90;1.65;;;;;;;;;;4995435;28;20038;-69
2023/09/06 13:22:03;;;;;;;3.28;1.75;;;;;;;;;;4993441;28;20085;-69
2023/09/06 13:24:33;;;;;;;2.80;1.67;;;;;;;;;;4991993;28;20046;-70
2023/09/06 13:26:59;;;;;;;2.05;1.70;;;;;;;;;;4994863;28;20508;-70
2023/09/06 13:29:25;;;;;;;2.90;1.65;;;;;;;;;;4993613;28;20104;-71
2023/09/06 13:31:51;;;;;;;3.03;1.50;;;;;;;;;;4994629;28;20038;-71
2023/09/06 13:34:17;;;;;;;1.70;1.60;;;;;;;;;;4994364;28;20042;-71
2023/09/06 13:36:43;;;;;;;1.67;1.42;;;;;;;;;;4994284;28;20034;-71
2023/09/06 13:39:13;;;;;;;2.75;1.80;;;;;;;;;;4994353;28;20049;-71
2023/09/06 13:41:40;;;;;;;2.40;1.25;;;;;;;;;;4985193;28;20505;-71
2023/09/06 13:44:06;;;;;;;3.25;1.60;;;;;;;;;;4994082;28;20068;-71
2023/09/06 13:46:32;;;;;;;2.70;1.77;;;;;;;;;;4994166;28;20074;-71
2023/09/06 13:49:00;;;;;;;3.67;1.73;;;;;;;;;;4992919;28;20053;-71
2023/09/06 13:51:26;;;;;;;2.90;1.70;;;;;;;;;;4995074;28;20068;-71
2023/09/06 13:53:52;;;;;;;2.22;1.45;;;;;;;;;;4994826;28;20546;-71
2023/09/06 13:56:18;;;;;;;2.95;1.70;;;;;;;;;;4993967;28;20126;-71
2023/09/06 13:58:44;;;;;;;3.17;1.50;;;;;;;;;;4993230;28;20109;-71
2023/09/06 14:01:11;;;;;;;1.75;1.48;;;;;;;;;;4994536;28;20038;-71
2023/09/06 14:03:39;;;;;;;2.85;1.52;;;;;;;;;;4993438;28;20580;-71
2023/09/06 14:06:05;;;;;;;3.10;1.58;;;;;;;;;;4992687;28;20042;-71
2023/09/06 14:08:30;;;;;;;2.28;1.55;;;;;;;;;;4994014;28;20045;-71
2023/09/06 14:10:58;;;;;;;3.08;1.70;;;;;;;;;;4994598;28;20117;-71
2023/09/06 14:13:24;;;;;;;1.52;1.27;;;;;;;;;;4993921;28;20420;-71
2023/09/06 14:15:51;;;;;;;1.58;1.45;;;;;;;;;;4992267;28;20050;-71
2023/09/06 14:18:18;;;;;;;2.08;1.42;;;;;;;;;;4994139;28;20056;-71
2023/09/06 14:20:44;;;;;;;5.13;1.70;;;;;;;;;;4993954;28;20042;-71
2023/09/06 14:23:11;;;;;;;3.17;1.50;;;;;;;;;;4992756;28;20044;-71
2023/09/06 14:25:37;;;;;;;2.45;1.40;;;;;;;;;;4992133;28;20049;-71
2023/09/06 14:28:03;;;;;;;2.47;1.30;;;;;;;;;;4994138;28;20034;-70
2023/09/06 14:30:30;;;;;;;1.50;1.40;;;;;;;;;;4975555;28;20408;-70
2023/09/06 14:32:56;;;;;;;3.22;1.65;;;;;;;;;;4994305;28;20034;-70
2023/09/06 14:35:22;;;;;;;3.08;1.58;;;;;;;;;;4992508;28;20049;-70
2023/09/06 14:37:48;;;;;;;3.38;1.70;;;;;;;;;;4993042;28;20041;-70
2023/09/06 14:40:14;;;;;;;2.47;1.35;;;;;;;;;;4993638;28;20041;-70
2023/09/06 14:42:42;;;;;;;3.20;1.80;;;;;;;;;;4992023;28;20073;-70
2023/09/06 14:45:08;;;;;;;2.10;1.70;;;;;;;;;;4991454;28;20045;-70
2023/09/06 14:47:35;;;;;;;5.22;1.58;;;;;;;;;;4993609;28;20050;-70